sensor_id;sensor_type;location;lat;lon;timestamp;P1;durP1;ratioP1;P2;durP2;ratioP2
24739;SDS011;45234;48.148;17.128;2022-12-29T00:00:07;18.88;;;10.43;;
24739;SDS011;45234;48.148;17.128;2022-12-29T00:02:39;22.67;;;10.88;;
24739;SDS011;45234;48.148;17.128;2022-12-29T00:05:06;18.90;;;10.55;;
24739;SDS011;45234;48.148;17.128;2022-12-29T00:07:33;17.77;;;9.38;;
24739;SDS011;45234;48.148;17.128;2022-12-29T00:10:01;16.23;;;9.70;;
24739;SDS011;45234;48.148;17.128;2022-12-29T00:12:28;16.02;;;10.30;;
24739;SDS011;45234;48.148;17.128;2022-12-29T00:15:14;16.00;;;10.57;;
24739;SDS011;45234;48.148;17.128;2022-12-29T00:18:00;17.60;;;10.05;;
24739;SDS011;45234;48.148;17.128;2022-12-29T00:20:27;18.83;;;9.98;;
24739;SDS011;45234;48.148;17.128;2022-12-29T00:23:12;18.13;;;10.85;;
24739;SDS011;45234;48.148;17.128;2022-12-29T00:25:58;17.92;;;10.15;;
24739;SDS011;45234;48.148;17.128;2022-12-29T00:28:49;18.17;;;9.77;;
24739;SDS011;45234;48.148;17.128;2022-12-29T00:31:35;14.40;;;9.77;;
24739;SDS011;45234;48.148;17.128;2022-12-29T00:34:20;14.95;;;9.98;;
24739;SDS011;45234;48.148;17.128;2022-12-29T00:37:06;15.85;;;8.98;;
24739;SDS011;45234;48.148;17.128;2022-12-29T00:39:33;21.65;;;11.10;;
24739;SDS011;45234;48.148;17.128;2022-12-29T00:42:18;17.17;;;9.40;;
24739;SDS011;45234;48.148;17.128;2022-12-29T00:45:04;18.45;;;9.82;;
24739;SDS011;45234;48.148;17.128;2022-12-29T00:47:31;16.35;;;9.85;;
24739;SDS011;45234;48.148;17.128;2022-12-29T00:49:58;18.27;;;10.68;;
24739;SDS011;45234;48.148;17.128;2022-12-29T00:52:26;21.30;;;9.55;;
24739;SDS011;45234;48.148;17.128;2022-12-29T00:54:53;15.30;;;9.20;;
24739;SDS011;45234;48.148;17.128;2022-12-29T00:57:20;18.83;;;10.18;;
24739;SDS011;45234;48.148;17.128;2022-12-29T00:59:46;17.67;;;9.43;;
24739;SDS011;45234;48.148;17.128;2022-12-29T01:02:14;16.58;;;9.88;;
24739;SDS011;45234;48.148;17.128;2022-12-29T01:04:41;18.73;;;9.77;;
24739;SDS011;45234;48.148;17.128;2022-12-29T01:07:08;16.90;;;9.05;;
24739;SDS011;45234;48.148;17.128;2022-12-29T01:09:35;16.92;;;9.32;;
24739;SDS011;45234;48.148;17.128;2022-12-29T01:12:21;14.80;;;9.75;;
24739;SDS011;45234;48.148;17.128;2022-12-29T01:15:10;18.48;;;10.23;;
24739;SDS011;45234;48.148;17.128;2022-12-29T01:17:40;15.43;;;9.57;;
24739;SDS011;45234;48.148;17.128;2022-12-29T01:20:07;17.73;;;9.57;;
24739;SDS011;45234;48.148;17.128;2022-12-29T01:22:34;20.08;;;10.15;;
24739;SDS011;45234;48.148;17.128;2022-12-29T01:25:01;21.48;;;9.75;;
24739;SDS011;45234;48.148;17.128;2022-12-29T01:27:28;21.13;;;9.85;;
24739;SDS011;45234;48.148;17.128;2022-12-29T01:29:56;20.50;;;10.00;;
24739;SDS011;45234;48.148;17.128;2022-12-29T01:32:23;17.48;;;10.02;;
24739;SDS011;45234;48.148;17.128;2022-12-29T01:34:50;17.48;;;9.88;;
24739;SDS011;45234;48.148;17.128;2022-12-29T01:37:17;15.90;;;9.27;;
24739;SDS011;45234;48.148;17.128;2022-12-29T01:39:44;17.23;;;9.80;;
24739;SDS011;45234;48.148;17.128;2022-12-29T01:42:18;19.17;;;9.60;;
24739;SDS011;45234;48.148;17.128;2022-12-29T01:44:53;19.73;;;10.77;;
24739;SDS011;45234;48.148;17.128;2022-12-29T01:47:30;20.60;;;10.05;;
24739;SDS011;45234;48.148;17.128;2022-12-29T01:50:08;19.23;;;10.50;;
24739;SDS011;45234;48.148;17.128;2022-12-29T01:52:44;23.08;;;11.07;;
24739;SDS011;45234;48.148;17.128;2022-12-29T01:55:21;21.90;;;11.20;;
24739;SDS011;45234;48.148;17.128;2022-12-29T01:57:50;22.77;;;11.48;;
24739;SDS011;45234;48.148;17.128;2022-12-29T02:00:21;22.05;;;10.82;;
24739;SDS011;45234;48.148;17.128;2022-12-29T02:02:50;22.45;;;10.85;;
24739;SDS011;45234;48.148;17.128;2022-12-29T02:06:04;19.92;;;10.73;;
24739;SDS011;45234;48.148;17.128;2022-12-29T02:08:10;21.70;;;11.23;;
24739;SDS011;45234;48.148;17.128;2022-12-29T02:10:38;17.65;;;10.55;;
24739;SDS011;45234;48.148;17.128;2022-12-29T02:13:06;21.25;;;10.77;;
24739;SDS011;45234;48.148;17.128;2022-12-29T02:18:48;20.55;;;10.65;;
24739;SDS011;45234;48.148;17.128;2022-12-29T02:21:39;19.25;;;10.73;;
24739;SDS011;45234;48.148;17.128;2022-12-29T02:33:17;21.13;;;12.13;;
24739;SDS011;45234;48.148;17.128;2022-12-29T02:41:31;21.13;;;10.40;;
24739;SDS011;45234;48.148;17.128;2022-12-29T02:47:00;18.80;;;10.93;;
24739;SDS011;45234;48.148;17.128;2022-12-29T02:52:34;18.80;;;11.27;;
24739;SDS011;45234;48.148;17.128;2022-12-29T02:55:05;19.88;;;10.73;;
24739;SDS011;45234;48.148;17.128;2022-12-29T02:57:34;18.52;;;10.75;;
24739;SDS011;45234;48.148;17.128;2022-12-29T03:00:05;22.02;;;10.98;;
24739;SDS011;45234;48.148;17.128;2022-12-29T03:10:37;19.33;;;10.50;;
24739;SDS011;45234;48.148;17.128;2022-12-29T03:13:28;20.38;;;11.50;;
24739;SDS011;45234;48.148;17.128;2022-12-29T03:16:55;21.75;;;12.20;;
24739;SDS011;45234;48.148;17.128;2022-12-29T03:19:35;20.08;;;11.02;;
24739;SDS011;45234;48.148;17.128;2022-12-29T03:22:15;21.23;;;12.25;;
24739;SDS011;45234;48.148;17.128;2022-12-29T03:27:41;25.83;;;11.68;;
24739;SDS011;45234;48.148;17.128;2022-12-29T03:30:15;19.15;;;11.02;;
24739;SDS011;45234;48.148;17.128;2022-12-29T03:32:46;23.33;;;11.13;;
24739;SDS011;45234;48.148;17.128;2022-12-29T03:35:21;19.80;;;11.73;;
24739;SDS011;45234;48.148;17.128;2022-12-29T03:40:45;25.08;;;12.25;;
24739;SDS011;45234;48.148;17.128;2022-12-29T03:43:15;21.55;;;12.18;;
24739;SDS011;45234;48.148;17.128;2022-12-29T03:45:44;21.10;;;11.35;;
24739;SDS011;45234;48.148;17.128;2022-12-29T03:48:12;22.13;;;12.77;;
24739;SDS011;45234;48.148;17.128;2022-12-29T03:50:39;20.42;;;12.98;;
24739;SDS011;45234;48.148;17.128;2022-12-29T03:53:07;22.70;;;12.48;;
24739;SDS011;45234;48.148;17.128;2022-12-29T03:55:34;18.77;;;12.38;;
24739;SDS011;45234;48.148;17.128;2022-12-29T03:58:01;20.83;;;12.02;;
24739;SDS011;45234;48.148;17.128;2022-12-29T04:00:46;19.65;;;12.15;;
24739;SDS011;45234;48.148;17.128;2022-12-29T04:03:13;20.25;;;12.30;;
24739;SDS011;45234;48.148;17.128;2022-12-29T04:05:43;23.52;;;12.82;;
24739;SDS011;45234;48.148;17.128;2022-12-29T04:08:10;23.20;;;11.85;;
24739;SDS011;45234;48.148;17.128;2022-12-29T04:10:37;22.33;;;12.55;;
24739;SDS011;45234;48.148;17.128;2022-12-29T04:13:04;23.95;;;12.57;;
24739;SDS011;45234;48.148;17.128;2022-12-29T04:15:32;20.63;;;12.23;;
24739;SDS011;45234;48.148;17.128;2022-12-29T04:17:59;22.52;;;12.65;;
24739;SDS011;45234;48.148;17.128;2022-12-29T04:20:27;22.33;;;12.43;;
24739;SDS011;45234;48.148;17.128;2022-12-29T04:23:12;24.85;;;13.25;;
24739;SDS011;45234;48.148;17.128;2022-12-29T04:25:39;22.02;;;12.25;;
24739;SDS011;45234;48.148;17.128;2022-12-29T04:28:07;23.08;;;12.52;;
24739;SDS011;45234;48.148;17.128;2022-12-29T04:31:07;26.67;;;13.90;;
24739;SDS011;45234;48.148;17.128;2022-12-29T04:33:37;21.77;;;12.23;;
24739;SDS011;45234;48.148;17.128;2022-12-29T04:36:04;23.40;;;13.82;;
24739;SDS011;45234;48.148;17.128;2022-12-29T04:38:33;22.60;;;13.23;;
24739;SDS011;45234;48.148;17.128;2022-12-29T04:41:02;22.75;;;13.57;;
24739;SDS011;45234;48.148;17.128;2022-12-29T04:43:31;21.85;;;12.98;;
24739;SDS011;45234;48.148;17.128;2022-12-29T04:46:18;20.88;;;12.82;;
24739;SDS011;45234;48.148;17.128;2022-12-29T04:49:00;21.88;;;13.68;;
24739;SDS011;45234;48.148;17.128;2022-12-29T04:52:12;21.02;;;12.65;;
24739;SDS011;45234;48.148;17.128;2022-12-29T04:54:40;24.33;;;12.30;;
24739;SDS011;45234;48.148;17.128;2022-12-29T04:57:14;20.50;;;12.68;;
24739;SDS011;45234;48.148;17.128;2022-12-29T04:59:44;26.55;;;13.30;;
24739;SDS011;45234;48.148;17.128;2022-12-29T05:02:13;25.10;;;13.23;;
24739;SDS011;45234;48.148;17.128;2022-12-29T05:04:41;21.13;;;13.40;;
24739;SDS011;45234;48.148;17.128;2022-12-29T05:07:08;21.73;;;13.43;;
24739;SDS011;45234;48.148;17.128;2022-12-29T05:09:35;20.20;;;13.05;;
24739;SDS011;45234;48.148;17.128;2022-12-29T05:12:03;22.80;;;12.90;;
24739;SDS011;45234;48.148;17.128;2022-12-29T05:14:32;20.48;;;13.55;;
24739;SDS011;45234;48.148;17.128;2022-12-29T05:17:01;24.92;;;14.57;;
24739;SDS011;45234;48.148;17.128;2022-12-29T05:19:28;22.17;;;13.75;;
24739;SDS011;45234;48.148;17.128;2022-12-29T05:21:55;25.95;;;14.98;;
24739;SDS011;45234;48.148;17.128;2022-12-29T05:24:22;21.33;;;12.90;;
24739;SDS011;45234;48.148;17.128;2022-12-29T05:26:52;23.23;;;14.10;;
24739;SDS011;45234;48.148;17.128;2022-12-29T05:29:52;24.80;;;13.45;;
24739;SDS011;45234;48.148;17.128;2022-12-29T05:32:19;24.98;;;14.63;;
24739;SDS011;45234;48.148;17.128;2022-12-29T05:34:46;24.23;;;14.55;;
24739;SDS011;45234;48.148;17.128;2022-12-29T05:37:12;23.17;;;14.43;;
24739;SDS011;45234;48.148;17.128;2022-12-29T05:39:40;23.00;;;14.32;;
24739;SDS011;45234;48.148;17.128;2022-12-29T05:42:07;26.08;;;15.70;;
24739;SDS011;45234;48.148;17.128;2022-12-29T05:44:47;25.23;;;13.93;;
24739;SDS011;45234;48.148;17.128;2022-12-29T05:47:36;23.63;;;13.77;;
24739;SDS011;45234;48.148;17.128;2022-12-29T05:50:08;25.05;;;15.07;;
24739;SDS011;45234;48.148;17.128;2022-12-29T05:53:01;28.52;;;15.40;;
24739;SDS011;45234;48.148;17.128;2022-12-29T05:55:28;23.20;;;14.13;;
24739;SDS011;45234;48.148;17.128;2022-12-29T05:57:55;25.98;;;14.73;;
24739;SDS011;45234;48.148;17.128;2022-12-29T06:00:22;24.80;;;13.68;;
24739;SDS011;45234;48.148;17.128;2022-12-29T06:02:49;25.73;;;15.88;;
24739;SDS011;45234;48.148;17.128;2022-12-29T06:05:17;27.23;;;15.38;;
24739;SDS011;45234;48.148;17.128;2022-12-29T06:07:43;23.90;;;14.70;;
24739;SDS011;45234;48.148;17.128;2022-12-29T06:10:13;25.80;;;14.15;;
24739;SDS011;45234;48.148;17.128;2022-12-29T06:12:52;32.22;;;14.95;;
24739;SDS011;45234;48.148;17.128;2022-12-29T06:15:19;25.98;;;14.18;;
24739;SDS011;45234;48.148;17.128;2022-12-29T06:17:48;25.33;;;15.02;;
24739;SDS011;45234;48.148;17.128;2022-12-29T06:20:15;25.48;;;13.90;;
24739;SDS011;45234;48.148;17.128;2022-12-29T06:22:42;23.17;;;13.48;;
24739;SDS011;45234;48.148;17.128;2022-12-29T06:25:10;27.38;;;15.27;;
24739;SDS011;45234;48.148;17.128;2022-12-29T06:27:39;26.08;;;14.10;;
24739;SDS011;45234;48.148;17.128;2022-12-29T06:30:06;24.58;;;14.95;;
24739;SDS011;45234;48.148;17.128;2022-12-29T06:32:36;23.08;;;13.85;;
24739;SDS011;45234;48.148;17.128;2022-12-29T06:35:06;26.15;;;14.35;;
24739;SDS011;45234;48.148;17.128;2022-12-29T06:37:38;25.42;;;15.35;;
24739;SDS011;45234;48.148;17.128;2022-12-29T06:40:05;23.65;;;14.32;;
24739;SDS011;45234;48.148;17.128;2022-12-29T06:43:08;22.75;;;13.85;;
24739;SDS011;45234;48.148;17.128;2022-12-29T06:45:46;22.08;;;12.75;;
24739;SDS011;45234;48.148;17.128;2022-12-29T06:48:13;24.73;;;14.07;;
24739;SDS011;45234;48.148;17.128;2022-12-29T06:50:39;26.40;;;13.75;;
24739;SDS011;45234;48.148;17.128;2022-12-29T06:53:06;27.40;;;15.18;;
24739;SDS011;45234;48.148;17.128;2022-12-29T06:55:33;21.50;;;13.15;;
24739;SDS011;45234;48.148;17.128;2022-12-29T06:58:00;21.17;;;13.45;;
24739;SDS011;45234;48.148;17.128;2022-12-29T07:00:27;26.38;;;14.65;;
24739;SDS011;45234;48.148;17.128;2022-12-29T07:02:54;26.92;;;14.10;;
24739;SDS011;45234;48.148;17.128;2022-12-29T07:05:24;26.33;;;15.32;;
24739;SDS011;45234;48.148;17.128;2022-12-29T07:07:54;23.80;;;14.32;;
24739;SDS011;45234;48.148;17.128;2022-12-29T07:10:21;27.63;;;14.38;;
24739;SDS011;45234;48.148;17.128;2022-12-29T07:12:48;30.50;;;14.95;;
24739;SDS011;45234;48.148;17.128;2022-12-29T07:15:15;24.38;;;14.02;;
24739;SDS011;45234;48.148;17.128;2022-12-29T07:17:42;25.38;;;14.13;;
24739;SDS011;45234;48.148;17.128;2022-12-29T07:20:09;22.92;;;14.40;;
24739;SDS011;45234;48.148;17.128;2022-12-29T07:22:36;22.55;;;14.05;;
24739;SDS011;45234;48.148;17.128;2022-12-29T07:25:04;22.88;;;13.82;;
24739;SDS011;45234;48.148;17.128;2022-12-29T07:27:31;24.08;;;13.88;;
24739;SDS011;45234;48.148;17.128;2022-12-29T07:29:58;21.17;;;13.27;;
24739;SDS011;45234;48.148;17.128;2022-12-29T07:32:25;26.23;;;14.73;;
24739;SDS011;45234;48.148;17.128;2022-12-29T07:34:52;22.20;;;14.60;;
24739;SDS011;45234;48.148;17.128;2022-12-29T07:37:19;23.35;;;15.00;;
24739;SDS011;45234;48.148;17.128;2022-12-29T07:39:45;22.17;;;13.63;;
24739;SDS011;45234;48.148;17.128;2022-12-29T07:42:12;21.80;;;13.77;;
24739;SDS011;45234;48.148;17.128;2022-12-29T07:44:41;20.52;;;14.00;;
24739;SDS011;45234;48.148;17.128;2022-12-29T07:47:17;27.35;;;15.80;;
24739;SDS011;45234;48.148;17.128;2022-12-29T07:49:44;23.40;;;13.88;;
24739;SDS011;45234;48.148;17.128;2022-12-29T07:52:11;21.48;;;14.18;;
24739;SDS011;45234;48.148;17.128;2022-12-29T07:54:37;24.35;;;14.43;;
24739;SDS011;45234;48.148;17.128;2022-12-29T07:57:04;22.13;;;14.15;;
24739;SDS011;45234;48.148;17.128;2022-12-29T07:59:31;25.15;;;14.30;;
24739;SDS011;45234;48.148;17.128;2022-12-29T08:01:58;27.27;;;13.90;;
24739;SDS011;45234;48.148;17.128;2022-12-29T08:04:25;24.08;;;14.23;;
24739;SDS011;45234;48.148;17.128;2022-12-29T08:06:52;24.58;;;14.32;;
24739;SDS011;45234;48.148;17.128;2022-12-29T08:09:19;23.17;;;13.38;;
24739;SDS011;45234;48.148;17.128;2022-12-29T08:11:49;24.60;;;13.40;;
24739;SDS011;45234;48.148;17.128;2022-12-29T08:14:16;21.88;;;14.63;;
24739;SDS011;45234;48.148;17.128;2022-12-29T08:16:43;23.33;;;14.07;;
24739;SDS011;45234;48.148;17.128;2022-12-29T08:19:10;22.08;;;14.27;;
24739;SDS011;45234;48.148;17.128;2022-12-29T08:21:37;22.55;;;14.02;;
24739;SDS011;45234;48.148;17.128;2022-12-29T08:24:05;25.10;;;13.95;;
24739;SDS011;45234;48.148;17.128;2022-12-29T08:26:33;21.77;;;13.82;;
24739;SDS011;45234;48.148;17.128;2022-12-29T08:29:00;23.95;;;15.18;;
24739;SDS011;45234;48.148;17.128;2022-12-29T08:31:27;22.92;;;14.98;;
24739;SDS011;45234;48.148;17.128;2022-12-29T08:33:54;22.73;;;14.48;;
24739;SDS011;45234;48.148;17.128;2022-12-29T08:36:21;23.48;;;14.23;;
24739;SDS011;45234;48.148;17.128;2022-12-29T08:38:48;24.60;;;14.02;;
24739;SDS011;45234;48.148;17.128;2022-12-29T08:41:15;22.45;;;14.45;;
24739;SDS011;45234;48.148;17.128;2022-12-29T08:43:45;23.83;;;14.85;;
24739;SDS011;45234;48.148;17.128;2022-12-29T08:46:13;23.67;;;14.18;;
24739;SDS011;45234;48.148;17.128;2022-12-29T08:48:40;22.92;;;14.13;;
24739;SDS011;45234;48.148;17.128;2022-12-29T08:51:07;22.52;;;14.80;;
24739;SDS011;45234;48.148;17.128;2022-12-29T08:53:34;22.15;;;14.18;;
24739;SDS011;45234;48.148;17.128;2022-12-29T08:56:01;21.13;;;14.70;;
24739;SDS011;45234;48.148;17.128;2022-12-29T08:58:40;22.77;;;15.75;;
24739;SDS011;45234;48.148;17.128;2022-12-29T09:01:09;23.70;;;14.45;;
24739;SDS011;45234;48.148;17.128;2022-12-29T09:03:36;20.98;;;13.30;;
24739;SDS011;45234;48.148;17.128;2022-12-29T09:06:23;22.60;;;14.13;;
24739;SDS011;45234;48.148;17.128;2022-12-29T09:08:50;27.50;;;14.60;;
24739;SDS011;45234;48.148;17.128;2022-12-29T09:11:20;25.13;;;15.10;;
24739;SDS011;45234;48.148;17.128;2022-12-29T09:13:49;22.48;;;14.48;;
24739;SDS011;45234;48.148;17.128;2022-12-29T09:16:16;22.45;;;14.30;;
24739;SDS011;45234;48.148;17.128;2022-12-29T09:18:47;23.92;;;14.88;;
24739;SDS011;45234;48.148;17.128;2022-12-29T09:21:14;24.90;;;15.05;;
24739;SDS011;45234;48.148;17.128;2022-12-29T09:23:41;27.48;;;15.50;;
24739;SDS011;45234;48.148;17.128;2022-12-29T09:26:08;24.80;;;14.73;;
24739;SDS011;45234;48.148;17.128;2022-12-29T09:28:35;28.42;;;16.83;;
24739;SDS011;45234;48.148;17.128;2022-12-29T09:31:02;25.65;;;15.65;;
24739;SDS011;45234;48.148;17.128;2022-12-29T09:33:29;24.63;;;15.20;;
24739;SDS011;45234;48.148;17.128;2022-12-29T09:35:58;25.02;;;15.35;;
24739;SDS011;45234;48.148;17.128;2022-12-29T09:38:26;25.00;;;14.68;;
24739;SDS011;45234;48.148;17.128;2022-12-29T09:40:54;23.13;;;14.75;;
24739;SDS011;45234;48.148;17.128;2022-12-29T09:43:48;27.02;;;14.95;;
24739;SDS011;45234;48.148;17.128;2022-12-29T09:46:34;26.98;;;15.75;;
24739;SDS011;45234;48.148;17.128;2022-12-29T09:51:43;22.73;;;14.35;;
24739;SDS011;45234;48.148;17.128;2022-12-29T09:54:21;24.20;;;15.02;;
24739;SDS011;45234;48.148;17.128;2022-12-29T09:57:04;23.33;;;15.40;;
24739;SDS011;45234;48.148;17.128;2022-12-29T09:59:43;22.80;;;15.70;;
24739;SDS011;45234;48.148;17.128;2022-12-29T10:08:05;26.20;;;16.90;;
24739;SDS011;45234;48.148;17.128;2022-12-29T10:10:56;32.40;;;16.63;;
24739;SDS011;45234;48.148;17.128;2022-12-29T10:17:05;25.35;;;14.90;;
24739;SDS011;45234;48.148;17.128;2022-12-29T10:22:45;29.38;;;16.42;;
24739;SDS011;45234;48.148;17.128;2022-12-29T10:25:32;25.73;;;16.92;;
24739;SDS011;45234;48.148;17.128;2022-12-29T10:31:01;24.50;;;16.42;;
24739;SDS011;45234;48.148;17.128;2022-12-29T10:33:37;26.45;;;16.48;;
24739;SDS011;45234;48.148;17.128;2022-12-29T10:36:15;22.45;;;16.10;;
24739;SDS011;45234;48.148;17.128;2022-12-29T10:38:47;25.23;;;16.08;;
24739;SDS011;45234;48.148;17.128;2022-12-29T10:41:44;24.67;;;16.75;;
24739;SDS011;45234;48.148;17.128;2022-12-29T10:44:18;27.55;;;17.52;;
24739;SDS011;45234;48.148;17.128;2022-12-29T10:46:57;27.08;;;16.77;;
24739;SDS011;45234;48.148;17.128;2022-12-29T10:49:28;31.02;;;17.35;;
24739;SDS011;45234;48.148;17.128;2022-12-29T10:51:58;24.85;;;15.82;;
24739;SDS011;45234;48.148;17.128;2022-12-29T10:57:08;23.90;;;16.20;;
24739;SDS011;45234;48.148;17.128;2022-12-29T10:59:51;26.08;;;16.98;;
24739;SDS011;45234;48.148;17.128;2022-12-29T11:04:51;28.40;;;17.17;;
24739;SDS011;45234;48.148;17.128;2022-12-29T11:07:22;28.27;;;17.88;;
24739;SDS011;45234;48.148;17.128;2022-12-29T11:09:52;25.95;;;17.05;;
24739;SDS011;45234;48.148;17.128;2022-12-29T11:12:21;27.58;;;17.30;;
24739;SDS011;45234;48.148;17.128;2022-12-29T11:15:00;25.67;;;17.55;;
24739;SDS011;45234;48.148;17.128;2022-12-29T11:17:28;29.42;;;17.75;;
24739;SDS011;45234;48.148;17.128;2022-12-29T11:19:55;31.02;;;17.73;;
24739;SDS011;45234;48.148;17.128;2022-12-29T11:22:23;27.58;;;17.83;;
24739;SDS011;45234;48.148;17.128;2022-12-29T11:24:53;27.33;;;16.85;;
24739;SDS011;45234;48.148;17.128;2022-12-29T11:27:30;25.65;;;17.45;;
24739;SDS011;45234;48.148;17.128;2022-12-29T11:29:58;29.02;;;17.75;;
24739;SDS011;45234;48.148;17.128;2022-12-29T11:32:26;28.05;;;18.35;;
24739;SDS011;45234;48.148;17.128;2022-12-29T11:34:57;26.85;;;16.45;;
24739;SDS011;45234;48.148;17.128;2022-12-29T11:37:40;25.77;;;16.63;;
24739;SDS011;45234;48.148;17.128;2022-12-29T11:40:18;25.55;;;16.88;;
24739;SDS011;45234;48.148;17.128;2022-12-29T11:42:56;26.55;;;17.33;;
24739;SDS011;45234;48.148;17.128;2022-12-29T11:45:37;25.77;;;17.35;;
24739;SDS011;45234;48.148;17.128;2022-12-29T11:48:15;27.10;;;16.88;;
24739;SDS011;45234;48.148;17.128;2022-12-29T11:50:49;26.42;;;16.83;;
24739;SDS011;45234;48.148;17.128;2022-12-29T11:53:22;27.20;;;17.63;;
24739;SDS011;45234;48.148;17.128;2022-12-29T11:56:06;28.10;;;16.95;;
24739;SDS011;45234;48.148;17.128;2022-12-29T11:58:38;24.67;;;16.58;;
24739;SDS011;45234;48.148;17.128;2022-12-29T12:01:28;25.45;;;17.48;;
24739;SDS011;45234;48.148;17.128;2022-12-29T12:06:35;26.52;;;16.95;;
24739;SDS011;45234;48.148;17.128;2022-12-29T12:09:10;26.65;;;17.30;;
24739;SDS011;45234;48.148;17.128;2022-12-29T12:11:51;25.63;;;16.33;;
24739;SDS011;45234;48.148;17.128;2022-12-29T12:17:23;25.58;;;17.25;;
24739;SDS011;45234;48.148;17.128;2022-12-29T12:26:15;25.83;;;17.42;;
24739;SDS011;45234;48.148;17.128;2022-12-29T12:29:14;25.20;;;17.10;;
24739;SDS011;45234;48.148;17.128;2022-12-29T12:34:50;28.40;;;18.17;;
24739;SDS011;45234;48.148;17.128;2022-12-29T12:40:25;33.55;;;18.70;;
24739;SDS011;45234;48.148;17.128;2022-12-29T12:43:03;28.45;;;17.65;;
24739;SDS011;45234;48.148;17.128;2022-12-29T12:53:50;30.00;;;19.27;;
24739;SDS011;45234;48.148;17.128;2022-12-29T12:58:59;31.38;;;19.90;;
24739;SDS011;45234;48.148;17.128;2022-12-29T13:04:20;27.30;;;17.95;;
24739;SDS011;45234;48.148;17.128;2022-12-29T13:07:32;32.22;;;19.67;;
24739;SDS011;45234;48.148;17.128;2022-12-29T13:10:25;30.08;;;19.13;;
24739;SDS011;45234;48.148;17.128;2022-12-29T13:15:56;31.75;;;20.15;;
24739;SDS011;45234;48.148;17.128;2022-12-29T13:24:36;32.45;;;19.52;;
24739;SDS011;45234;48.148;17.128;2022-12-29T13:27:14;29.40;;;19.27;;
24739;SDS011;45234;48.148;17.128;2022-12-29T13:30:01;31.77;;;19.65;;
24739;SDS011;45234;48.148;17.128;2022-12-29T13:41:41;32.45;;;20.40;;
24739;SDS011;45234;48.148;17.128;2022-12-29T13:44:25;33.55;;;21.83;;
24739;SDS011;45234;48.148;17.128;2022-12-29T13:48:07;29.50;;;19.92;;
24739;SDS011;45234;48.148;17.128;2022-12-29T13:50:12;31.05;;;20.42;;
24739;SDS011;45234;48.148;17.128;2022-12-29T13:52:48;34.83;;;22.23;;
24739;SDS011;45234;48.148;17.128;2022-12-29T13:55:47;34.15;;;20.90;;
24739;SDS011;45234;48.148;17.128;2022-12-29T13:59:00;33.80;;;21.25;;
24739;SDS011;45234;48.148;17.128;2022-12-29T14:01:32;32.78;;;21.13;;
24739;SDS011;45234;48.148;17.128;2022-12-29T14:04:09;34.95;;;21.88;;
24739;SDS011;45234;48.148;17.128;2022-12-29T14:06:39;33.75;;;19.90;;
24739;SDS011;45234;48.148;17.128;2022-12-29T14:12:00;34.38;;;20.58;;
24739;SDS011;45234;48.148;17.128;2022-12-29T14:14:29;35.53;;;21.20;;
24739;SDS011;45234;48.148;17.128;2022-12-29T14:17:08;33.08;;;22.20;;
24739;SDS011;45234;48.148;17.128;2022-12-29T14:19:40;33.92;;;20.95;;
24739;SDS011;45234;48.148;17.128;2022-12-29T14:22:09;34.17;;;21.38;;
24739;SDS011;45234;48.148;17.128;2022-12-29T14:24:42;35.08;;;21.40;;
24739;SDS011;45234;48.148;17.128;2022-12-29T14:34:50;36.45;;;21.92;;
24739;SDS011;45234;48.148;17.128;2022-12-29T14:37:25;36.00;;;22.10;;
24739;SDS011;45234;48.148;17.128;2022-12-29T14:42:46;36.20;;;22.85;;
24739;SDS011;45234;48.148;17.128;2022-12-29T14:47:45;34.15;;;22.77;;
24739;SDS011;45234;48.148;17.128;2022-12-29T14:50:23;35.50;;;22.52;;
24739;SDS011;45234;48.148;17.128;2022-12-29T14:52:59;37.05;;;23.08;;
24739;SDS011;45234;48.148;17.128;2022-12-29T15:00:45;38.30;;;23.75;;
24739;SDS011;45234;48.148;17.128;2022-12-29T15:05:50;39.20;;;24.05;;
24739;SDS011;45234;48.148;17.128;2022-12-29T15:08:27;40.33;;;24.70;;
24739;SDS011;45234;48.148;17.128;2022-12-29T15:11:04;38.50;;;24.45;;
24739;SDS011;45234;48.148;17.128;2022-12-29T15:13:44;41.63;;;25.92;;
24739;SDS011;45234;48.148;17.128;2022-12-29T15:16:31;41.45;;;25.35;;
24739;SDS011;45234;48.148;17.128;2022-12-29T15:19:01;42.53;;;24.48;;
24739;SDS011;45234;48.148;17.128;2022-12-29T15:21:34;41.28;;;24.83;;
24739;SDS011;45234;48.148;17.128;2022-12-29T15:24:05;36.85;;;25.10;;
24739;SDS011;45234;48.148;17.128;2022-12-29T15:26:39;43.17;;;25.63;;
24739;SDS011;45234;48.148;17.128;2022-12-29T15:31:55;41.40;;;26.27;;
24739;SDS011;45234;48.148;17.128;2022-12-29T15:34:28;41.28;;;24.63;;
24739;SDS011;45234;48.148;17.128;2022-12-29T15:36:56;44.15;;;26.45;;
24739;SDS011;45234;48.148;17.128;2022-12-29T15:39:28;41.03;;;24.85;;
24739;SDS011;45234;48.148;17.128;2022-12-29T15:41:59;38.58;;;25.30;;
24739;SDS011;45234;48.148;17.128;2022-12-29T15:47:04;39.17;;;24.63;;
24739;SDS011;45234;48.148;17.128;2022-12-29T15:49:56;44.85;;;25.90;;
24739;SDS011;45234;48.148;17.128;2022-12-29T15:52:29;41.58;;;24.55;;
24739;SDS011;45234;48.148;17.128;2022-12-29T15:54:58;45.42;;;24.98;;
24739;SDS011;45234;48.148;17.128;2022-12-29T15:57:29;43.15;;;26.55;;
24739;SDS011;45234;48.148;17.128;2022-12-29T16:02:36;46.13;;;27.02;;
24739;SDS011;45234;48.148;17.128;2022-12-29T16:05:08;41.00;;;24.27;;
24739;SDS011;45234;48.148;17.128;2022-12-29T16:07:56;46.03;;;27.83;;
24739;SDS011;45234;48.148;17.128;2022-12-29T16:10:30;42.65;;;25.95;;
24739;SDS011;45234;48.148;17.128;2022-12-29T16:13:20;38.97;;;25.52;;
24739;SDS011;45234;48.148;17.128;2022-12-29T16:16:28;43.88;;;26.80;;
24739;SDS011;45234;48.148;17.128;2022-12-29T16:19:06;45.13;;;27.25;;
24739;SDS011;45234;48.148;17.128;2022-12-29T16:21:41;47.47;;;26.63;;
24739;SDS011;45234;48.148;17.128;2022-12-29T16:24:12;43.65;;;25.85;;
24739;SDS011;45234;48.148;17.128;2022-12-29T16:26:49;46.08;;;27.27;;
24739;SDS011;45234;48.148;17.128;2022-12-29T16:29:19;43.88;;;26.23;;
24739;SDS011;45234;48.148;17.128;2022-12-29T16:31:52;46.28;;;26.08;;
24739;SDS011;45234;48.148;17.128;2022-12-29T16:34:30;47.80;;;26.90;;
24739;SDS011;45234;48.148;17.128;2022-12-29T16:37:02;44.97;;;27.00;;
24739;SDS011;45234;48.148;17.128;2022-12-29T16:50:31;44.67;;;25.88;;
24739;SDS011;45234;48.148;17.128;2022-12-29T16:53:05;44.20;;;26.83;;
24739;SDS011;45234;48.148;17.128;2022-12-29T16:55:54;45.97;;;27.15;;
24739;SDS011;45234;48.148;17.128;2022-12-29T16:58:26;48.33;;;28.58;;
24739;SDS011;45234;48.148;17.128;2022-12-29T17:00:57;44.72;;;27.80;;
24739;SDS011;45234;48.148;17.128;2022-12-29T17:03:33;45.85;;;28.45;;
24739;SDS011;45234;48.148;17.128;2022-12-29T17:06:04;45.50;;;27.33;;
24739;SDS011;45234;48.148;17.128;2022-12-29T17:08:41;48.53;;;28.20;;
24739;SDS011;45234;48.148;17.128;2022-12-29T17:11:20;44.50;;;27.10;;
24739;SDS011;45234;48.148;17.128;2022-12-29T17:16:58;47.88;;;28.10;;
24739;SDS011;45234;48.148;17.128;2022-12-29T17:19:33;48.85;;;29.40;;
24739;SDS011;45234;48.148;17.128;2022-12-29T17:22:02;45.88;;;27.60;;